Time;durP1;ratioP1;P1;durP2;ratioP2;P2;SDS_P1;SDS_P2;PMS_P1;PMS_P2;Temp;Humidity;BMP_temperature;BMP_pressure;BME280_temperature;BME280_humidity;BME280_pressure;Samples;Min_cycle;Max_cycle;Signal;HPM_P1;HPM_P2
2023/10/27 07:23:20;;;;;;;7.15;6.47;;;;;;;-145.79;100.00;76107.81;5274430;28;20404;-65
2023/10/27 07:25:52;;;;;;;7.65;6.88;;;;;;;-145.79;100.00;76103.56;5270407;28;20499;-66
2023/10/27 07:28:24;;;;;;;7.10;6.40;;;;;;;-145.79;100.00;76107.81;5269826;28;20041;-66
2023/10/27 07:30:55;;;;;;;6.47;5.88;;;;;;;-145.79;100.00;76107.81;5276756;28;20405;-65
2023/10/27 07:33:26;;;;;;;6.03;5.53;;;;;;;-145.79;100.00;76097.22;5273415;28;20101;-66
2023/10/27 07:35:58;;;;;;;6.53;5.93;;;;;;;-145.79;100.00;76107.81;5269895;28;20079;-66
2023/10/27 07:38:30;;;;;;;6.30;5.00;;;;;;;-145.79;100.00;76063.31;5269952;28;20068;-67
2023/10/27 07:41:03;;;;;;;5.70;5.20;;;;;;;-145.79;100.00;76067.56;5266314;28;20033;-66
2023/10/27 07:43:36;;;;;;;5.85;5.35;;;;;;;-145.79;100.00;76090.88;5269410;28;20079;-65
2023/10/27 07:46:10;;;;;;;9.90;9.02;;;;;;;-145.79;100.00;76084.50;5260335;28;20021;-65
2023/10/27 07:48:42;;;;;;;17.42;15.57;;;;;;;-145.79;100.00;76092.97;5267896;28;20029;-65
2023/10/27 07:51:13;;;;;;;7.50;6.90;;;;;;;-145.79;100.00;76084.50;5270493;28;20043;-65
2023/10/27 07:53:44;;;;;;;8.27;7.57;;;;;;;-145.79;100.00;76088.75;5269658;28;20016;-65
2023/10/27 07:56:18;;;;;;;7.78;6.97;;;;;;;-145.79;100.00;76088.75;5266239;28;20051;-65
2023/10/27 07:58:49;;;;;;;7.45;6.75;;;;;;;-145.79;100.00;76080.28;5259852;28;20044;-66
2023/10/27 08:01:21;;;;;;;7.25;6.55;;;;;;;-145.79;100.00;76080.28;5269322;28;20435;-65
2023/10/27 08:03:52;;;;;;;7.22;6.60;;;;;;;-145.79;100.00;76084.50;5270210;28;20476;-64
2023/10/27 08:06:23;;;;;;;7.18;6.47;;;;;;;-145.79;100.00;76097.22;5269036;28;20035;-65
2023/10/27 08:08:54;;;;;;;6.82;6.22;;;;;;;-145.79;100.00;76107.81;5263943;28;20089;-65
2023/10/27 08:11:26;;;;;;;6.65;5.95;;;;;;;-145.79;100.00;76101.47;5276957;28;20032;-65
2023/10/27 08:13:57;;;;;;;8.95;6.57;;;;;;;-145.79;100.00;76092.97;5270104;28;20055;-65
2023/10/27 08:16:28;;;;;;;6.75;6.15;;;;;;;-145.79;100.00;76084.50;5269251;28;20375;-65
2023/10/27 08:19:00;;;;;;;6.07;5.57;;;;;;;-145.79;100.00;76084.50;5269989;28;20021;-65
2023/10/27 08:21:31;;;;;;;6.72;6.10;;;;;;;-145.79;100.00;76082.38;5267751;28;20380;-65
2023/10/27 08:24:03;;;;;;;6.13;5.60;;;;;;;-145.79;100.00;76088.75;5270013;28;20033;-65
2023/10/27 08:26:34;;;;;;;6.15;5.55;;;;;;;-145.79;100.00;76090.88;5267398;28;20063;-65
2023/10/27 08:29:05;;;;;;;6.32;5.72;;;;;;;-145.79;100.00;76078.16;5267259;28;20098;-65
2023/10/27 08:31:37;;;;;;;4.97;4.57;;;;;;;-145.79;100.00;76086.63;5267442;28;20032;-65
2023/10/27 08:34:11;;;;;;;4.63;4.20;;;;;;;-145.79;100.00;76084.50;5255290;28;20515;-65
2023/10/27 08:36:42;;;;;;;4.35;3.95;;;;;;;-145.79;100.00;76084.50;5253633;28;20454;-65
2023/10/27 08:39:13;;;;;;;4.60;4.20;;;;;;;-145.79;100.00;76086.63;5251871;28;20102;-64
2023/10/27 08:41:45;;;;;;;3.90;3.60;;;;;;;-145.79;100.00;76054.84;5258712;28;20110;-65
2023/10/27 08:44:18;;;;;;;4.80;4.30;;;;;;;-145.79;100.00;76086.63;5257002;28;20109;-64
2023/10/27 08:46:50;;;;;;;5.32;4.82;;;;;;;-145.79;100.00;76090.88;5245733;28;20113;-64
2023/10/27 08:49:22;;;;;;;5.85;5.35;;;;;;;-145.79;100.00;76088.75;5252503;28;20033;-64
2023/10/27 08:51:53;;;;;;;5.07;4.57;;;;;;;-145.79;100.00;76080.28;5254064;28;20040;-64
2023/10/27 08:54:24;;;;;;;23.48;20.98;;;;;;;-145.79;100.00;76082.38;5254952;28;20037;-65
2023/10/27 08:56:56;;;;;;;7.05;6.38;;;;;;;-145.79;100.00;76092.97;5250058;28;20473;-64
2023/10/27 08:59:28;;;;;;;6.97;6.38;;;;;;;-145.79;100.00;76088.75;5252014;28;20037;-64
2023/10/27 09:02:01;;;;;;;8.45;5.65;;;;;;;-145.79;100.00;76105.69;5251611;28;20026;-65
2023/10/27 09:04:33;;;;;;;6.13;5.63;;;;;;;-145.79;100.00;76097.22;5253008;28;20468;-66
2023/10/27 09:07:05;;;;;;;7.85;7.05;;;;;;;-145.79;100.00;76095.09;5258941;28;20033;-65
2023/10/27 09:09:39;;;;;;;7.32;6.38;;;;;;;-145.79;100.00;76086.63;5249639;28;20376;-66
2023/10/27 09:12:11;;;;;;;7.32;6.47;;;;;;;-145.79;100.00;76099.34;5258440;28;20076;-65
2023/10/27 09:14:42;;;;;;;6.63;6.03;;;;;;;-145.79;100.00;76092.97;5249606;28;20082;-66
2023/10/27 09:17:14;;;;;;;7.53;6.80;;;;;;;-145.79;100.00;76082.38;5253538;28;20033;-65
2023/10/27 09:19:45;;;;;;;7.15;6.45;;;;;;;-145.79;100.00;76090.88;5255426;28;20025;-65
2023/10/27 09:22:18;;;;;;;6.88;6.20;;;;;;;-145.79;100.00;76088.75;5250755;28;20042;-66
2023/10/27 09:24:50;;;;;;;7.75;7.00;;;;;;;-145.79;100.00;76078.16;5254616;28;20025;-65
2023/10/27 09:27:27;;;;;;;7.95;6.25;;;;;;;-145.79;100.00;76071.78;5247023;28;20101;-65
2023/10/27 09:30:01;;;;;;;7.57;6.85;;;;;;;-145.79;100.00;76078.16;5260505;28;20024;-65
2023/10/27 09:32:34;;;;;;;7.75;6.47;;;;;;;-145.79;100.00;76073.91;5252378;28;20028;-65
2023/10/27 09:35:17;;;;;;;7.53;6.75;;;;;;;-145.79;100.00;76065.44;5259389;28;20025;-65
2023/10/27 09:37:50;;;;;;;10.10;9.20;;;;;;;-145.79;100.00;76071.78;5251147;28;20037;-65
2023/10/27 09:40:21;;;;;;;9.00;8.13;;;;;;;-145.79;100.00;76063.31;5258053;28;20029;-64
2023/10/27 09:42:58;;;;;;;7.25;6.57;;;;;;;-145.79;100.00;76071.78;5251978;28;20507;-64
2023/10/27 09:45:29;;;;;;;7.35;6.60;;;;;;;-145.79;100.00;76061.19;5249239;28;20527;-64
2023/10/27 09:48:05;;;;;;;9.10;8.20;;;;;;;-145.79;100.00;76067.56;5253587;28;20033;-65
2023/10/27 09:50:39;;;;;;;7.97;7.18;;;;;;;-145.79;100.00;76071.78;5254259;28;20044;-65
2023/10/27 09:53:14;;;;;;;8.63;7.82;;;;;;;-145.79;100.00;76071.78;5250990;28;20476;-65
2023/10/27 09:55:45;;;;;;;7.95;7.15;;;;;;;-145.79;100.00;76067.56;5258315;28;20020;-65
2023/10/27 09:58:17;;;;;;;8.35;7.47;;;;;;;-145.79;100.00;76069.69;5250902;28;20074;-65
2023/10/27 10:00:49;;;;;;;10.88;9.77;;;;;;;-145.79;100.00;76056.97;5254612;28;20053;-65
2023/10/27 10:03:24;;;;;;;10.55;9.45;;;;;;;-145.79;100.00;76054.84;5250251;28;20120;-65
2023/10/27 10:06:12;;;;;;;9.68;8.38;;;;;;;-145.79;100.00;76046.38;5251475;28;20025;-65
2023/10/27 10:09:05;;;;;;;10.98;9.88;;;;;;;-145.79;100.00;76052.72;5248814;28;20407;-64
2023/10/27 10:11:55;;;;;;;29.30;26.70;;;;;;;-145.79;100.00;76063.31;5243766;28;20033;-64
2023/10/27 10:14:39;;;;;;;10.27;9.30;;;;;;;-145.79;100.00;76063.31;5257768;28;20395;-63
2023/10/27 10:17:10;;;;;;;9.20;8.27;;;;;;;-145.79;100.00;76067.56;5243926;28;20030;-64
2023/10/27 10:19:49;;;;;;;14.55;13.18;;;;;;;-145.79;100.00;76061.19;5253716;28;20021;-64
2023/10/27 10:22:39;;;;;;;9.95;8.95;;;;;;;-145.79;100.00;76071.78;5245094;28;20068;-65
2023/10/27 10:25:23;;;;;;;10.30;9.05;;;;;;;-145.79;100.00;76065.44;5246233;28;20033;-65
2023/10/27 10:28:09;;;;;;;10.50;9.27;;;;;;;-145.79;100.00;76063.31;5241102;28;20079;-64
2023/10/27 10:30:45;;;;;;;9.75;8.77;;;;;;;-145.79;100.00;76069.69;5249901;28;20035;-64
2023/10/27 10:33:19;;;;;;;10.05;9.05;;;;;;;-145.79;100.00;76065.44;5243899;28;20145;-64
2023/10/27 10:35:52;;;;;;;10.90;8.82;;;;;;;-145.79;100.00;76078.16;5248139;28;20029;-65
2023/10/27 10:38:23;;;;;;;10.13;9.13;;;;;;;-145.79;100.00;76071.78;5246402;28;20084;-64
2023/10/27 10:40:59;;;;;;;10.60;9.60;;;;;;;-145.79;100.00;76076.03;5238869;28;20090;-64
2023/10/27 10:43:36;;;;;;;11.90;10.80;;;;;;;-145.79;100.00;76076.03;5254048;28;20037;-64
2023/10/27 10:46:10;;;;;;;14.10;10.50;;;;;;;-145.79;100.00;76080.28;5240586;28;20431;-64
2023/10/27 10:48:44;;;;;;;13.82;11.65;;;;;;;-145.79;100.00;76076.03;5252255;28;20032;-64
2023/10/27 10:51:16;;;;;;;13.10;11.07;;;;;;;-145.79;100.00;76073.91;5259499;28;20033;-65
2023/10/27 10:53:54;;;;;;;13.13;11.30;;;;;;;-145.79;100.00;76069.69;5252988;28;20037;-65
2023/10/27 10:56:26;;;;;;;12.60;11.10;;;;;;;-145.79;100.00;76071.78;5248996;28;20025;-64
2023/10/27 10:58:57;;;;;;;14.32;12.02;;;;;;;-145.79;100.00;76065.44;5246716;28;20021;-66
2023/10/27 11:01:29;;;;;;;10.27;8.00;;;;;;;-145.79;100.00;76042.13;5248907;28;20385;-66
2023/10/27 11:04:01;;;;;;;11.27;9.57;;;;;;;-145.79;100.00;76059.09;5256317;28;20021;-67
2023/10/27 11:06:32;;;;;;;13.07;11.77;;;;;;;-145.79;100.00;76044.25;5248719;28;20067;-67
2023/10/27 11:09:06;;;;;;;12.32;11.00;;;;;;;-145.79;100.00;76029.41;5252967;28;20059;-67
2023/10/27 11:11:38;;;;;;;10.38;9.18;;;;;;;-145.79;100.00;76037.88;5249206;28;20036;-66
2023/10/27 11:14:10;;;;;;;10.82;8.93;;;;;;;-145.79;100.00;76035.78;5250125;28;20053;-66
2023/10/27 11:16:41;;;;;;;15.30;12.80;;;;;;;-145.79;100.00;76029.41;5248683;28;20052;-67
2023/10/27 11:19:16;;;;;;;17.95;14.10;;;;;;;-145.79;100.00;76033.66;5252004;28;20113;-67
2023/10/27 11:21:51;;;;;;;;;;;;;;;-145.79;100.00;76020.94;5253373;28;20037;-67
2023/10/27 11:24:23;;;;;;;10.30;7.85;;;;;;;-145.79;100.00;76008.22;5247390;28;19924;-66
2023/10/27 11:26:54;;;;;;;8.48;7.53;;;;;;;-145.79;100.00;76025.19;5245261;28;20030;-67
2023/10/27 11:29:26;;;;;;;8.35;7.47;;;;;;;-145.79;100.00;76020.94;5249650;28;20072;-67
2023/10/27 11:32:13;;;;;;;8.02;7.25;;;;;;;-145.79;100.00;76025.19;5246583;28;20096;-68
2023/10/27 11:34:54;;;;;;;8.05;7.25;;;;;;;-145.79;100.00;76025.19;5251933;28;20535;-68
2023/10/27 11:37:26;;;;;;;7.57;6.78;;;;;;;-145.79;100.00;76025.19;5248142;28;20220;-68
2023/10/27 11:40:12;;;;;;;7.97;6.88;;;;;;;-145.79;100.00;76016.69;5241085;28;20129;-68
2023/10/27 11:42:43;;;;;;;7.80;7.10;;;;;;;-145.79;100.00;76029.41;5250361;28;20042;-67
2023/10/27 11:45:15;;;;;;;7.25;6.55;;;;;;;-145.79;100.00;76016.69;5239071;28;20048;-69
2023/10/27 11:47:46;;;;;;;9.40;6.53;;;;;;;-145.79;100.00;75991.28;5251237;28;20514;-69
2023/10/27 11:50:17;;;;;;;8.00;6.72;;;;;;;-145.79;100.00;75991.28;5249058;28;20021;-67
2023/10/27 11:52:49;;;;;;;7.30;6.60;;;;;;;-145.79;100.00;76004.00;5234176;28;20026;-66
2023/10/27 11:55:20;;;;;;;8.02;7.05;;;;;;;-145.79;100.00;76008.22;5252291;28;20090;-65
2023/10/27 11:57:51;;;;;;;9.40;5.95;;;;;;;-145.79;100.00;76001.88;5251690;28;20393;-66
2023/10/27 12:00:23;;;;;;;9.77;7.85;;;;;;;-145.79;100.00;76008.22;5247895;28;20018;-66
2023/10/27 12:02:54;;;;;;;11.55;9.60;;;;;;;-145.79;100.00;75987.03;5253506;28;20025;-68
2023/10/27 12:05:25;;;;;;;10.32;7.25;;;;;;;-145.79;100.00;75989.16;5245987;28;20416;-68
2023/10/27 12:07:57;;;;;;;9.35;7.28;;;;;;;-145.79;100.00;75995.50;5245704;28;20484;-70
2023/10/27 12:10:28;;;;;;;15.13;13.65;;;;;;;-145.79;100.00;75987.03;5244982;28;20078;-68
2023/10/27 12:12:59;;;;;;;9.48;7.15;;;;;;;-145.79;100.00;75991.28;5253783;28;20029;-68
2023/10/27 12:15:30;;;;;;;12.27;8.98;;;;;;;-145.79;100.00;75999.75;5249303;28;20472;-68
2023/10/27 12:18:03;;;;;;;12.05;9.63;;;;;;;-145.79;100.00;75999.75;5251957;28;20343;-68
2023/10/27 12:20:38;;;;;;;10.63;9.52;;;;;;;-145.79;100.00;75978.56;5251044;28;20033;-69
2023/10/27 12:23:10;;;;;;;12.57;8.75;;;;;;;-145.79;100.00;76014.59;5252143;28;20045;-69
2023/10/27 12:25:44;;;;;;;9.85;8.18;;;;;;;-145.79;100.00;76031.53;5249543;28;20052;-69
2023/10/27 12:28:16;;;;;;;7.60;6.00;;;;;;;-145.79;100.00;76042.13;5252773;28;20107;-69
2023/10/27 12:30:47;;;;;;;6.60;5.35;;;;;;;-145.79;100.00;76042.13;5251639;28;20390;-69
2023/10/27 12:33:19;;;;;;;9.60;5.75;;;;;;;-145.79;100.00;76046.38;5245504;28;20476;-71
2023/10/27 12:35:51;;;;;;;9.82;6.70;;;;;;;-145.79;100.00;76042.13;5255548;28;20460;-68
2023/10/27 12:38:22;;;;;;;7.22;4.95;;;;;;;-145.79;100.00;76052.72;5255243;28;20035;-68
2023/10/27 12:40:55;;;;;;;4.75;3.47;;;;;;;-145.79;100.00;76054.84;5251835;28;20033;-68
2023/10/27 12:43:29;;;;;;;4.85;4.20;;;;;;;-145.79;100.00;76054.84;5250318;28;20504;-69
2023/10/27 12:46:04;;;;;;;7.88;5.22;;;;;;;-145.79;100.00;76056.97;5245708;28;20578;-69
2023/10/27 12:48:36;;;;;;;;;;;;;;;-145.79;100.00;76042.13;5248481;28;20029;-69
2023/10/27 12:51:07;;;;;;;5.55;4.80;;;;;;;-145.79;100.00;76065.44;5247187;28;19917;-67
2023/10/27 12:53:38;;;;;;;4.93;4.03;;;;;;;-145.79;100.00;76044.25;5255665;28;20112;-68
2023/10/27 12:56:10;;;;;;;6.97;4.40;;;;;;;-145.79;100.00;76054.84;5251589;28;20428;-68
2023/10/27 12:58:41;;;;;;;10.10;9.10;;;;;;;-145.79;100.00;76029.41;5251178;28;20021;-67
2023/10/27 13:01:12;;;;;;;6.40;4.60;;;;;;;-145.79;100.00;76033.66;5248009;28;20025;-67
2023/10/27 13:03:43;;;;;;;7.88;5.40;;;;;;;-145.79;100.00;76029.41;5254289;28;20048;-69
2023/10/27 13:06:15;;;;;;;4.75;3.63;;;;;;;-145.79;100.00;76040.00;5249838;28;20164;-68
2023/10/27 13:08:49;;;;;;;4.85;3.70;;;;;;;-145.79;100.00;76056.97;5247474;28;20017;-68
2023/10/27 13:11:21;;;;;;;5.05;4.00;;;;;;;-145.79;100.00;76018.81;5246480;28;20033;-67
2023/10/27 13:13:53;;;;;;;10.93;9.93;;;;;;;-145.79;100.00;76042.13;5248447;28;20040;-68
2023/10/27 13:16:25;;;;;;;6.65;4.22;;;;;;;-145.79;100.00;76046.38;5253894;28;20028;-67
2023/10/27 13:19:00;;;;;;;4.85;4.05;;;;;;;-145.79;100.00;76033.66;5244260;28;20079;-67
2023/10/27 13:21:35;;;;;;;7.38;4.32;;;;;;;-145.79;100.00;76042.13;5257114;28;20033;-68
2023/10/27 13:24:07;;;;;;;4.95;4.10;;;;;;;-145.79;100.00;76033.66;5247057;28;20487;-67
2023/10/27 13:26:38;;;;;;;4.75;4.25;;;;;;;-145.79;100.00;76029.41;5261064;28;20028;-68
2023/10/27 13:29:09;;;;;;;7.53;4.47;;;;;;;-145.79;100.00;76004.00;5249409;28;20388;-69
2023/10/27 13:31:44;;;;;;;7.05;5.10;;;;;;;-145.79;100.00;76016.69;5250616;28;20032;-71
2023/10/27 13:34:15;;;;;;;5.75;5.13;;;;;;;-145.79;100.00;76025.19;5247137;28;20025;-70
2023/10/27 13:36:47;;;;;;;6.90;5.63;;;;;;;-145.79;100.00;76025.19;5256137;28;20032;-70
2023/10/27 13:39:19;;;;;;;6.90;5.80;;;;;;;-145.79;100.00;76020.94;5250684;28;20043;-71
2023/10/27 13:41:50;;;;;;;7.22;6.63;;;;;;;-145.79;100.00;76012.47;5251033;28;20029;-71
2023/10/27 13:44:22;;;;;;;8.02;7.13;;;;;;;-145.79;100.00;76016.69;5248526;28;20341;-70
2023/10/27 13:46:53;;;;;;;7.32;6.03;;;;;;;-145.79;100.00;75978.56;5252638;28;20028;-71
2023/10/27 13:49:25;;;;;;;6.68;5.85;;;;;;;-145.79;100.00;76008.22;5250171;28;20030;-70
2023/10/27 13:51:57;;;;;;;6.80;6.18;;;;;;;-145.79;100.00;76016.69;5250436;28;20029;-70
2023/10/27 13:54:28;;;;;;;7.07;6.20;;;;;;;-145.79;100.00;76008.22;5254417;28;20098;-70
2023/10/27 13:57:00;;;;;;;8.43;6.03;;;;;;;-145.79;100.00;76018.81;5254647;28;20025;-71
2023/10/27 13:59:32;;;;;;;7.40;5.65;;;;;;;-145.79;100.00;76012.47;5253526;28;20024;-71
2023/10/27 14:02:03;;;;;;;6.63;6.07;;;;;;;-145.79;100.00;76020.94;5252860;28;20040;-71
2023/10/27 14:04:35;;;;;;;6.57;5.53;;;;;;;-145.79;100.00;76029.41;5248952;28;20029;-70
2023/10/27 14:07:06;;;;;;;7.85;5.72;;;;;;;-145.79;100.00;76042.13;5246228;28;20028;-72
2023/10/27 14:09:37;;;;;;;6.05;5.18;;;;;;;-145.79;100.00;76020.94;5253319;28;20052;-71
2023/10/27 14:12:09;;;;;;;7.03;5.57;;;;;;;-145.79;100.00;76016.69;5252124;28;20324;-72
2023/10/27 14:14:40;;;;;;;27.23;24.35;;;;;;;-145.79;100.00;76025.19;5247709;28;20025;-71
2023/10/27 14:17:11;;;;;;;9.93;7.70;;;;;;;-145.79;100.00;76025.19;5250602;28;20037;-69
2023/10/27 14:19:43;;;;;;;8.05;6.20;;;;;;;-145.79;100.00;76020.94;5245162;28;20017;-71
2023/10/27 14:22:14;;;;;;;9.48;7.32;;;;;;;-145.79;100.00;76033.66;5251026;28;20420;-70
2023/10/27 14:24:45;;;;;;;7.93;6.30;;;;;;;-145.79;100.00;76031.53;5249838;28;20433;-68
2023/10/27 14:27:17;;;;;;;10.88;7.10;;;;;;;-145.79;100.00;76029.41;5248504;28;20102;-69
2023/10/27 14:29:48;;;;;;;8.27;7.47;;;;;;;-145.79;100.00;76029.41;5257331;28;20032;-69
2023/10/27 14:32:20;;;;;;;8.88;7.93;;;;;;;-145.79;100.00;76010.34;5253182;28;20049;-69
2023/10/27 14:34:52;;;;;;;8.55;7.75;;;;;;;-145.79;100.00;76014.59;5248711;28;20389;-69
2023/10/27 14:37:23;;;;;;;8.77;7.07;;;;;;;-145.79;100.00;76020.94;5250928;28;20017;-69
2023/10/27 14:39:54;;;;;;;8.70;7.68;;;;;;;-145.79;100.00;76006.09;5249435;28;20029;-69
2023/10/27 14:42:26;;;;;;;8.52;7.03;;;;;;;-145.79;100.00;76018.81;5244634;28;20132;-70
2023/10/27 14:44:58;;;;;;;8.48;6.93;;;;;;;-145.79;100.00;76006.09;5256615;28;20083;-68
2023/10/27 14:47:30;;;;;;;9.90;9.00;;;;;;;-145.79;100.00;76020.94;5255104;28;20036;-69
2023/10/27 14:50:01;;;;;;;10.13;9.13;;;;;;;-145.79;100.00;76029.41;5250246;28;20480;-70
2023/10/27 14:52:32;;;;;;;10.93;9.82;;;;;;;-145.79;100.00;76027.28;5252383;28;20116;-71
2023/10/27 14:55:04;;;;;;;10.90;8.70;;;;;;;-145.79;100.00;76027.28;5254672;28;20021;-71
2023/10/27 14:57:39;;;;;;;10.50;7.95;;;;;;;-145.79;100.00;76016.69;5255216;28;20027;-69
2023/10/27 15:00:12;;;;;;;8.55;7.68;;;;;;;-145.79;100.00;76023.06;5244590;28;20044;-69
2023/10/27 15:02:44;;;;;;;7.32;6.45;;;;;;;-145.79;100.00;76027.28;5252722;28;20460;-69
2023/10/27 15:05:17;;;;;;;6.60;4.93;;;;;;;-145.79;100.00;76029.41;5249165;28;20102;-72
2023/10/27 15:07:49;;;;;;;7.60;4.82;;;;;;;-145.79;100.00;76025.19;5249772;28;20029;-71
2023/10/27 15:10:20;;;;;;;6.60;5.22;;;;;;;-145.79;100.00;76029.41;5246202;28;20017;-70
2023/10/27 15:12:51;;;;;;;6.85;6.15;;;;;;;-145.79;100.00;76025.19;5256647;28;20503;-70
2023/10/27 15:15:23;;;;;;;11.23;8.40;;;;;;;-145.79;100.00;76014.59;5250581;28;20487;-68
2023/10/27 15:17:54;;;;;;;8.63;6.35;;;;;;;-145.79;100.00;76010.34;5258476;28;20024;-69
2023/10/27 15:20:26;;;;;;;8.90;5.35;;;;;;;-145.79;100.00;75984.91;5252651;28;20036;-70
2023/10/27 15:22:57;;;;;;;6.70;5.30;;;;;;;-145.79;100.00;76006.09;5251763;28;20385;-69
2023/10/27 15:25:37;;;;;;;12.70;9.80;;;;;;;-145.79;100.00;75995.50;5251317;28;20350;-69
2023/10/27 15:28:09;;;;;;;17.35;14.07;;;;;;;-145.79;100.00;75995.50;5250250;28;20033;-70
2023/10/27 15:30:40;;;;;;;6.95;5.20;;;;;;;-145.79;100.00;76006.09;5247470;28;20021;-70
2023/10/27 15:33:14;;;;;;;5.53;4.25;;;;;;;-145.79;100.00;76001.88;5254630;28;20092;-70
2023/10/27 15:35:45;;;;;;;7.60;5.25;;;;;;;-145.79;100.00;75999.75;5251664;28;20021;-70
2023/10/27 15:38:17;;;;;;;5.97;4.40;;;;;;;-145.79;100.00;76006.09;5252662;28;20487;-70
2023/10/27 15:40:48;;;;;;;8.45;4.43;;;;;;;-145.79;100.00;76004.00;5251616;28;20029;-71
2023/10/27 15:43:20;;;;;;;7.75;4.80;;;;;;;-145.79;100.00;75999.75;5253327;28;20555;-68
2023/10/27 15:46:06;;;;;;;7.72;5.00;;;;;;;-145.79;100.00;75995.50;5254123;28;20079;-68
2023/10/27 15:48:38;;;;;;;11.82;10.60;;;;;;;-145.79;100.00;75987.03;5259685;28;20353;-69
2023/10/27 15:51:09;;;;;;;12.88;10.85;;;;;;;-145.79;100.00;75999.75;5247160;28;20029;-69
2023/10/27 15:53:41;;;;;;;10.90;8.07;;;;;;;-145.79;100.00;75980.69;5239520;28;20021;-69
2023/10/27 15:56:12;;;;;;;10.38;8.93;;;;;;;-145.79;100.00;75976.44;5239133;28;20037;-68
2023/10/27 15:58:43;;;;;;;11.52;7.82;;;;;;;-145.79;100.00;76008.22;5240956;28;20295;-70
2023/10/27 16:01:15;;;;;;;7.63;6.13;;;;;;;-145.79;100.00;76025.19;5249763;28;20123;-70
2023/10/27 16:03:46;;;;;;;10.90;9.27;;;;;;;-145.79;100.00;76008.22;5247778;28;20079;-69
2023/10/27 16:06:19;;;;;;;17.45;11.25;;;;;;;-145.79;100.00;76025.19;5243683;28;20029;-69
2023/10/27 16:08:50;;;;;;;10.65;7.88;;;;;;;-145.79;100.00;76037.88;5243191;28;20354;-70
2023/10/27 16:11:24;;;;;;;5.82;4.25;;;;;;;-145.79;100.00;76042.13;5242935;28;20075;-69
2023/10/27 16:13:55;;;;;;;17.02;12.48;;;;;;;-145.79;100.00;76046.38;5241816;28;20388;-70
2023/10/27 16:16:27;;;;;;;11.32;7.32;;;;;;;-145.79;100.00;76033.66;5238972;28;20029;-71
2023/10/27 16:18:58;;;;;;;20.17;14.90;;;;;;;-145.79;100.00;76056.97;5238021;28;20032;-69
2023/10/27 16:21:30;;;;;;;13.02;10.77;;;;;;;-145.79;100.00;76046.38;5248411;28;20573;-69
2023/10/27 16:24:02;;;;;;;17.23;12.88;;;;;;;-145.79;100.00;76063.31;5248331;28;20429;-68
2023/10/27 16:26:33;;;;;;;15.88;11.77;;;;;;;-145.79;100.00;76044.25;5247153;28;20037;-68
2023/10/27 16:29:07;;;;;;;17.90;13.35;;;;;;;-145.79;100.00;76063.31;5243122;28;20083;-68
2023/10/27 16:31:39;;;;;;;17.65;13.80;;;;;;;-145.79;100.00;76054.84;5244155;28;20029;-69
2023/10/27 16:34:12;;;;;;;11.05;9.52;;;;;;;-145.79;100.00;76065.44;5253641;28;20032;-70
2023/10/27 16:36:45;;;;;;;13.55;10.75;;;;;;;-145.79;100.00;76029.41;5245184;28;20374;-70
2023/10/27 16:39:16;;;;;;;21.25;17.45;;;;;;;-145.79;100.00;76035.78;5244240;28;20037;-70
2023/10/27 16:41:47;;;;;;;16.83;13.13;;;;;;;-145.79;100.00;76035.78;5248469;28;20087;-70
2023/10/27 16:44:23;;;;;;;9.40;6.95;;;;;;;-145.79;100.00;76065.44;5251407;28;20115;-68
2023/10/27 16:46:54;;;;;;;9.88;6.78;;;;;;;-145.79;100.00;76063.31;5238133;28;20052;-67
2023/10/27 16:49:26;;;;;;;25.90;19.48;;;;;;;-145.79;100.00;76090.88;5245432;28;20029;-66
2023/10/27 16:51:57;;;;;;;18.75;13.75;;;;;;;-145.79;100.00;76092.97;5254287;28;20037;-66
2023/10/27 16:54:29;;;;;;;13.40;8.02;;;;;;;-145.79;100.00;76112.06;5251561;28;20025;-66
